Dati Storici

Data ora Umidita' aria (%) Temperatura aria (°C) Rad globale (W/m²) Gonioanemometro (°) Tacoanemometro (m/s) Pioggia (mm)
27-10-2012 22:10 95.9 % 14.683 2.489 182.598 0.875 0
27-10-2012 22:00 95.8 % 14.701 2.784 229.198 0.74 0
27-10-2012 21:50 95.8 % 14.736 2.989 237.234 0.7 0
27-10-2012 21:40 95.7 % 14.686 3.002 185.233 0.702 0
27-10-2012 21:30 95.6 % 14.583 2.874 223.888 0.555 0
27-10-2012 21:20 95.4 % 14.549 2.912 179.923 0.426 0
27-10-2012 21:10 95.2 % 14.526 2.759 349.869 -0.023 0
27-10-2012 21:00 95.2 % 14.633 2.733 136.619 0.267 0
27-10-2012 20:50 95.3 % 14.666 2.951 345.442 0.164 0
27-10-2012 20:40 95.2 % 14.712 2.9 60.473 0.567 0
27-10-2012 20:30 95.3 % 14.766 3.079 183.375 0.334 0
27-10-2012 20:20 95.1 % 14.756 3.682 243.536 0.368 0
27-10-2012 20:10 94.9 % 14.732 3.81 291.925 0.798 0
27-10-2012 20:00 94.7 % 14.725 3.438 91.399 0.512 0
27-10-2012 19:50 94.7 % 14.795 3.411 70.38 -0.019 0
27-10-2012 19:40 94.6 % 14.814 3.386 6.021 0.578 0
27-10-2012 19:30 94.6 % 14.903 3.155 31.756 0.387 0
27-10-2012 19:20 94.5 % 14.952 3.22 35.709 1.004 0
27-10-2012 19:10 94.5 % 14.99 3.309 321.004 0.415 0
27-10-2012 19:00 94.4 % 15.03 3.36 341.505 0.397 0

I dati sono presentati in modo automatico a scopo informativo. In seguito a verifica i dati possono subire modifiche o essere invalidati e non riportati negli archivi definitivi.